Terminal Aerodrome Forecast
Issued by NWS Pueblo, CO

Home | Current Version | Previous Version | Text Only | Print | Product List | Glossary On
Versions: 1 2 3 4 5 6 7 8 9 10 11 12 13 14 15 16 17 18 19 20 21 22 23
000
FTUS45 KPUB 172320
TAFCOS
TAF
KCOS 172320Z 1800/1824 17015KT P6SM FEW040 SCT200
     FM180300 10007KT P6SM FEW200
     FM180600 VRB06KT P6SM SKC
     FM181600 17011KT P6SM FEW200
     FM182000 18014G25KT P6SM FEW150 BKN200=

USA.gov is the U.S. government's official web portal to all federal, state and local government web resources and services.